Página principal
Imagens de satélite Previsões 15 diasClimaMeteorologia maritima Ciclones Descargas eléctricas AeroportosFAQ Notícias Sobre
Tempo : Europa África América do Norte América do Sul Ásia Austrália-Oceania Outros
Línguas Contacto

Cambridge, Inglaterra

latitude: 52-12N, longitude: 000-11E, altura: 15 m


METAR: EGSC 231820Z VRB03KT 9999 FEW030 14/08 Q1018
short-TAF: EGSC 232028Z 2318/2321 CNL
long-TAF: em falta

Hora: 04:56 (03:56 UTC)

Observação actual do tempo

O boletim foi feito há 9 horas e 36 minutos, às 18:20 UTC  
Vento 03 kt com direcção variável
Temperatura 14°C
Humidade 67%
Pressão 1018 hPa
Visibilidade 10 km ou mais
Poucas nuvens a uma altura de 3000 ft

Mudar unidades

As informações contidas neste sítio estão sujeitas a uma declaração de exoneração de responsabilidade
Tempo : Europa África América do Norte América do Sul Ásia Austrália-Oceania Outros
Imagens de satélite Previsões 15 diasClimaMeteorologia maritima Ciclones Descargas eléctricas AeroportosFAQ Línguas Contacto Notícias Sobre